Time;durP1;ratioP1;P1;durP2;ratioP2;P2;SDS_P1;SDS_P2;PMS_P1;PMS_P2;Temp;Humidity;BMP_temperature;BMP_pressure;BME280_temperature;BME280_humidity;BME280_pressure;Samples;Min_cycle;Max_cycle;Signal;HPM_P1;HPM_P2
2024/02/24 00:01:07;;;;;;;3.17;2.60;;;3.20;27.10;;;;;;5097838;28;20836;-41
2024/02/24 00:03:33;;;;;;;3.57;2.80;;;3.30;2.70;;;;;;5106112;28;20168;-39
2024/02/24 00:05:58;;;;;;;3.40;2.83;;;3.40;2.80;;;;;;5119250;28;20413;-39
2024/02/24 00:08:24;;;;;;;4.47;3.03;;;3.40;1.00;;;;;;5119852;28;20191;-41
2024/02/24 00:10:49;;;;;;;5.03;3.13;;;3.40;1.00;;;;;;5118151;28;20267;-39
2024/02/24 00:13:15;;;;;;;5.23;2.67;;;3.50;1.00;;;;;;5101724;28;20179;-40
2024/02/24 00:15:41;;;;;;;3.37;2.63;;;3.50;1.00;;;;;;5066238;28;20172;-39
2024/02/24 00:18:06;;;;;;;4.17;2.80;;;3.50;1.00;;;;;;5081677;28;20217;-41
2024/02/24 00:20:32;;;;;;;4.40;2.70;;;3.50;1.00;;;;;;5108294;28;20187;-40
2024/02/24 00:22:58;;;;;;;4.10;3.17;;;3.50;1.00;;;;;;5102234;28;20278;-40
2024/02/24 00:25:23;;;;;;;4.20;2.50;;;3.50;1.00;;;;;;5083790;28;20278;-40
2024/02/24 00:27:49;;;;;;;5.40;2.70;;;3.60;1.00;;;;;;5118314;28;20551;-40
2024/02/24 00:30:15;;;;;;;3.53;2.83;;;3.70;1.00;;;;;;5119751;28;20230;-40
2024/02/24 00:32:41;;;;;;;4.10;2.27;;;3.60;1.00;;;;;;5119743;28;20510;-41
2024/02/24 00:35:06;;;;;;;4.10;3.17;;;3.70;1.00;;;;;;5100786;28;20443;-39
2024/02/24 00:37:32;;;;;;;5.70;3.03;;;3.70;1.00;;;;;;5118933;28;20172;-39
2024/02/24 00:39:58;;;;;;;4.87;2.20;;;3.70;1.00;;;;;;5119623;28;20505;-39
2024/02/24 00:42:24;;;;;;;5.00;2.70;;;3.70;1.00;;;;;;5118659;28;20274;-40
2024/02/24 00:44:49;;;;;;;5.77;2.87;;;3.70;1.00;;;;;;5118728;28;20441;-40
2024/02/24 00:47:15;;;;;;;6.13;2.23;;;3.70;1.00;;;;;;5118014;28;20444;-40
2024/02/24 00:49:40;;;;;;;3.63;2.50;;;3.70;1.00;;;;;;5118242;28;20502;-43
2024/02/24 00:52:06;;;;;;;3.17;2.70;;;3.70;1.00;;;;;;5117641;28;20242;-42
2024/02/24 00:54:32;;;;;;;4.90;2.87;;;3.70;1.00;;;;;;5116642;28;20628;-41
2024/02/24 00:56:57;;;;;;;3.27;2.50;;;3.60;1.00;;;;;;5117728;28;20434;-39
2024/02/24 00:59:23;;;;;;;7.03;2.37;;;3.70;1.00;;;;;;5117514;28;20515;-39
2024/02/24 01:01:49;;;;;;;3.00;2.70;;;3.60;1.00;;;;;;5116570;28;20252;-41
2024/02/24 01:04:15;;;;;;;3.50;2.50;;;3.60;1.00;;;;;;5117109;28;20262;-39
2024/02/24 01:06:41;;;;;;;3.23;2.30;;;3.70;1.00;;;;;;5118408;28;20430;-42
2024/02/24 01:09:06;;;;;;;3.77;2.93;;;3.70;1.00;;;;;;5118657;28;20483;-39
2024/02/24 01:11:32;;;;;;;2.90;2.17;;;3.60;1.00;;;;;;5098860;28;20211;-40
2024/02/24 01:13:59;;;;;;;3.80;2.77;;;3.60;1.00;;;;;;5098154;28;20232;-40
2024/02/24 01:16:25;;;;;;;4.60;2.60;;;3.60;1.00;;;;;;5118418;28;20246;-40
2024/02/24 01:18:51;;;;;;;6.93;2.57;;;3.60;1.00;;;;;;5118110;28;20421;-41
2024/02/24 01:21:16;;;;;;;3.20;2.50;;;3.60;1.00;;;;;;5116552;28;20654;-42
2024/02/24 01:23:42;;;;;;;3.00;2.53;;;3.70;1.00;;;;;;5115797;28;20817;-39
2024/02/24 01:26:07;;;;;;;5.00;2.60;;;3.70;1.00;;;;;;5116780;28;20180;-40
2024/02/24 01:28:36;;;;;;;3.33;2.70;;;3.70;1.00;;;;;;5115099;28;20439;-39
2024/02/24 01:31:02;;;;;;;6.27;2.80;;;3.70;1.00;;;;;;5116635;28;20466;-40
2024/02/24 01:33:28;;;;;;;4.70;2.30;;;3.70;1.00;;;;;;5114298;28;20493;-41
2024/02/24 01:35:54;;;;;;;4.13;2.70;;;3.80;1.00;;;;;;5114448;28;20467;-39
2024/02/24 01:38:20;;;;;;;3.33;2.33;;;3.80;1.00;;;;;;5114160;28;20773;-39
2024/02/24 01:40:46;;;;;;;5.03;2.67;;;3.80;1.00;;;;;;5114086;28;20517;-40
2024/02/24 01:43:24;;;;;;;5.80;2.90;;;3.90;1.00;;;;;;5115066;28;20454;-40
2024/02/24 01:45:51;;;;;;;6.13;2.47;;;3.90;1.00;;;;;;5115262;28;20175;-40
2024/02/24 01:48:16;;;;;;;6.57;2.47;;;4.00;1.00;;;;;;5115718;28;20421;-39
2024/02/24 01:50:42;;;;;;;2.20;2.00;;;4.00;1.00;;;;;;5115284;28;20611;-39
2024/02/24 01:53:08;;;;;;;4.33;2.03;;;4.10;1.00;;;;;;5098353;28;20251;-40
2024/02/24 01:55:33;;;;;;;2.97;2.10;;;4.00;1.00;;;;;;5115738;28;20546;-40
2024/02/24 01:58:00;;;;;;;3.80;2.57;;;4.00;1.00;;;;;;5098168;28;20183;-38
2024/02/24 02:00:25;;;;;;;9.67;2.23;;;4.00;1.00;;;;;;5099689;28;20199;-39
2024/02/24 02:02:51;;;;;;;4.50;2.80;;;4.10;2.20;;;;;;5099549;28;20418;-43
2024/02/24 02:05:16;;;;;;;6.23;2.97;;;4.10;51.90;;;;;;5115329;28;20327;-41
2024/02/24 02:07:42;;;;;;;3.60;1.90;;;4.10;91.90;;;;;;5114624;28;20542;-39
2024/02/24 02:10:08;;;;;;;4.17;2.13;;;4.10;99.90;;;;;;5114558;28;20203;-41
2024/02/24 02:12:35;;;;;;;3.13;1.97;;;4.00;99.90;;;;;;5116048;28;20236;-40
2024/02/24 02:15:03;;;;;;;4.20;2.30;;;4.00;99.90;;;;;;5115816;28;20425;-40
2024/02/24 02:17:29;;;;;;;4.23;2.23;;;3.90;99.90;;;;;;5115741;28;20465;-40
2024/02/24 02:20:00;;;;;;;3.10;1.90;;;4.00;99.90;;;;;;5081001;28;20847;-43
2024/02/24 02:22:26;;;;;;;2.97;2.03;;;4.00;99.90;;;;;;5117072;28;20175;-43
2024/02/24 02:24:51;;;;;;;2.33;1.70;;;4.00;99.90;;;;;;5099060;28;20417;-39
2024/02/24 02:27:17;;;;;;;4.33;1.80;;;3.90;99.90;;;;;;5116589;28;20188;-40
2024/02/24 02:29:42;;;;;;;2.10;1.40;;;3.90;99.90;;;;;;5116474;28;20314;-40
2024/02/24 02:32:08;;;;;;;3.40;1.70;;;3.90;99.90;;;;;;5117415;28;20180;-40
2024/02/24 02:34:34;;;;;;;3.50;2.83;;;3.90;99.90;;;;;;5115860;28;20176;-43
2024/02/24 02:36:59;;;;;;;2.73;2.10;;;3.90;99.90;;;;;;5117025;28;20199;-41
2024/02/24 02:39:25;;;;;;;3.47;1.80;;;3.90;99.90;;;;;;5117222;28;20557;-40
2024/02/24 02:41:51;;;;;;;2.40;1.83;;;3.90;99.90;;;;;;5117423;28;20187;-40
2024/02/24 02:44:17;;;;;;;2.10;1.70;;;3.80;99.90;;;;;;5117403;28;20814;-40
2024/02/24 02:46:47;;;;;;;2.93;1.70;;;3.70;99.90;;;;;;5117369;28;20171;-46
2024/02/24 02:49:13;;;;;;;2.40;1.40;;;3.80;99.90;;;;;;5116313;28;20485;-39
2024/02/24 02:51:38;;;;;;;2.70;2.03;;;3.80;99.90;;;;;;5119118;28;20787;-42
2024/02/24 02:54:04;;;;;;;3.90;1.80;;;3.70;99.90;;;;;;5120887;28;20436;-40
2024/02/24 02:56:30;;;;;;;2.20;1.67;;;3.80;99.90;;;;;;5120794;28;20550;-42
2024/02/24 02:58:55;;;;;;;5.00;1.90;;;3.70;99.90;;;;;;5120695;28;20191;-40
2024/02/24 03:01:21;;;;;;;2.53;2.07;;;3.80;99.90;;;;;;5119838;28;20176;-39
2024/02/24 03:03:47;;;;;;;2.80;1.40;;;3.80;99.90;;;;;;5121044;28;20203;-39
2024/02/24 03:06:13;;;;;;;3.00;1.60;;;3.80;99.90;;;;;;5120851;28;20600;-42
2024/02/24 03:08:38;;;;;;;2.60;1.23;;;3.80;99.90;;;;;;5121010;28;20179;-40
2024/02/24 03:11:04;;;;;;;3.20;1.33;;;3.80;99.90;;;;;;5120875;28;20902;-40
2024/02/24 03:14:07;;;;;;;3.80;1.63;;;3.80;99.90;;;;;;5120894;28;20468;-39
2024/02/24 03:16:33;;;;;;;4.03;1.20;;;3.80;99.90;;;;;;5119976;28;20222;-44
2024/02/24 03:18:58;;;;;;;2.27;1.20;;;3.80;99.90;;;;;;5120923;28;20428;-40
2024/02/24 03:21:33;;;;;;;2.20;1.10;;;3.80;99.90;;;;;;5121074;28;20190;-39
2024/02/24 03:24:02;;;;;;;1.83;1.23;;;3.70;99.90;;;;;;5121532;28;20525;-42
2024/02/24 03:26:28;;;;;;;6.20;1.57;;;3.70;99.90;;;;;;5120557;28;20405;-40
2024/02/24 03:28:54;;;;;;;2.17;1.70;;;3.70;99.90;;;;;;5119273;28;20688;-40
2024/02/24 03:31:20;;;;;;;1.60;1.10;;;3.60;99.90;;;;;;5121133;28;20823;-39
2024/02/24 03:33:45;;;;;;;4.43;2.50;;;3.60;99.90;;;;;;5101668;28;20428;-40
2024/02/24 03:36:13;;;;;;;2.23;1.13;;;3.60;99.90;;;;;;5118682;28;20581;-42
2024/02/24 03:38:39;;;;;;;1.20;0.97;;;3.60;99.90;;;;;;5119007;28;20164;-42
2024/02/24 03:41:04;;;;;;;1.37;0.93;;;3.60;99.90;;;;;;5119049;28;20569;-39
2024/02/24 03:43:30;;;;;;;2.13;1.03;;;3.50;99.90;;;;;;5119059;28;20184;-40
2024/02/24 03:45:55;;;;;;;2.43;1.00;;;3.50;99.90;;;;;;5118035;28;20207;-41
2024/02/24 03:48:22;;;;;;;1.63;1.30;;;3.40;99.90;;;;;;5118843;28;20183;-41
2024/02/24 03:50:48;;;;;;;1.73;1.40;;;3.40;99.90;;;;;;5119787;28;20485;-39
2024/02/24 03:53:14;;;;;;;2.30;1.30;;;3.30;1.00;;;;;;5118982;28;20401;-41
2024/02/24 03:55:39;;;;;;;1.80;1.37;;;3.30;99.90;;;;;;5119731;28;20176;-40
2024/02/24 03:58:05;;;;;;;5.53;1.30;;;3.30;1.00;;;;;;5118716;28;20436;-39
2024/02/24 04:00:34;;;;;;;2.07;1.30;;;3.30;1.00;;;;;;5100170;28;20207;-39
2024/02/24 04:03:01;;;;;;;1.83;1.13;;;3.30;1.00;;;;;;5117681;28;20538;-40
2024/02/24 04:05:26;;;;;;;2.60;1.10;;;3.30;1.00;;;;;;5100289;28;20467;-42
2024/02/24 04:07:52;;;;;;;4.10;1.20;;;3.20;1.00;;;;;;5117794;28;20425;-38
2024/02/24 04:10:18;;;;;;;2.00;1.50;;;3.20;1.00;;;;;;5100910;28;20207;-41
2024/02/24 04:12:43;;;;;;;2.17;1.57;;;3.20;1.00;;;;;;5118763;28;20481;-43
2024/02/24 04:15:12;;;;;;;1.77;1.30;;;3.20;1.00;;;;;;5119068;28;20195;-40
2024/02/24 04:17:38;;;;;;;2.20;1.40;;;3.20;1.00;;;;;;5118808;28;20332;-41
2024/02/24 04:20:04;;;;;;;2.63;1.43;;;3.20;1.00;;;;;;5119939;28;20461;-41
2024/02/24 04:22:30;;;;;;;3.97;1.53;;;3.20;1.00;;;;;;5119355;28;20433;-40
2024/02/24 04:24:56;;;;;;;2.50;1.57;;;3.20;1.00;;;;;;5119676;28;20520;-41
2024/02/24 04:27:21;;;;;;;2.80;1.37;;;3.10;1.00;;;;;;5118707;28;20171;-42
2024/02/24 04:29:47;;;;;;;1.50;1.03;;;3.20;1.00;;;;;;5119674;28;20571;-40
2024/02/24 04:32:13;;;;;;;1.50;1.30;;;3.20;1.00;;;;;;5119392;28;20515;-44
2024/02/24 04:34:38;;;;;;;1.77;1.17;;;3.20;1.00;;;;;;5118419;28;20492;-40
2024/02/24 04:37:04;;;;;;;3.43;1.40;;;3.20;1.00;;;;;;5119474;28;20458;-41
2024/02/24 04:39:29;;;;;;;1.47;1.23;;;3.20;1.00;;;;;;5119148;28;20427;-39
2024/02/24 04:41:55;;;;;;;2.10;1.40;;;3.30;1.00;;;;;;5118463;28;20527;-40
2024/02/24 04:44:20;;;;;;;6.47;1.43;;;3.30;1.00;;;;;;5118557;28;20175;-41
2024/02/24 04:46:46;;;;;;;2.57;1.27;;;3.20;1.00;;;;;;5099584;28;20207;-42
2024/02/24 04:49:12;;;;;;;2.20;1.60;;;3.20;1.00;;;;;;5118423;28;20207;-39
2024/02/24 04:51:37;;;;;;;2.20;1.23;;;3.30;1.00;;;;;;5118903;28;20233;-40
2024/02/24 04:54:03;;;;;;;1.37;1.10;;;3.30;1.00;;;;;;5117944;28;20240;-40
2024/02/24 04:56:29;;;;;;;2.20;1.47;;;3.20;1.00;;;;;;5118333;28;20175;-40
2024/02/24 04:58:54;;;;;;;3.57;1.77;;;3.20;1.00;;;;;;5101179;28;20164;-39
2024/02/24 05:01:20;;;;;;;2.20;1.33;;;3.20;1.00;;;;;;5118986;28;20176;-40
2024/02/24 05:03:45;;;;;;;1.53;1.30;;;3.30;1.00;;;;;;5099846;28;20215;-39
2024/02/24 05:06:11;;;;;;;3.87;1.30;;;3.30;1.00;;;;;;5118651;28;20172;-41
2024/02/24 05:08:36;;;;;;;1.77;1.43;;;3.30;1.00;;;;;;5100622;28;20534;-42
2024/02/24 05:11:02;;;;;;;2.60;1.33;;;3.30;1.00;;;;;;5118972;28;20589;-40
2024/02/24 05:13:28;;;;;;;2.10;1.40;;;3.30;1.00;;;;;;5116976;28;20654;-41
2024/02/24 05:15:53;;;;;;;3.00;1.70;;;3.30;1.00;;;;;;5118658;28;20610;-41
2024/02/24 05:18:19;;;;;;;1.63;1.27;;;3.30;1.00;;;;;;5117609;28;20176;-40
2024/02/24 05:20:44;;;;;;;1.70;1.30;;;3.30;1.00;;;;;;5118342;28;20199;-40
2024/02/24 05:23:10;;;;;;;1.90;1.10;;;3.30;1.00;;;;;;5117927;28;20526;-41
2024/02/24 05:25:36;;;;;;;1.50;1.30;;;3.40;1.00;;;;;;5118790;28;20179;-40
2024/02/24 05:28:02;;;;;;;1.70;1.20;;;3.40;1.00;;;;;;5117876;28;20191;-39
2024/02/24 05:30:27;;;;;;;2.17;1.07;;;3.50;1.00;;;;;;5118064;28;20461;-41
2024/02/24 05:32:53;;;;;;;1.60;1.07;;;3.50;1.00;;;;;;5117571;28;20509;-40
2024/02/24 05:35:19;;;;;;;1.33;1.13;;;3.50;1.00;;;;;;5117943;28;20238;-39
2024/02/24 05:37:44;;;;;;;2.00;1.27;;;3.60;1.00;;;;;;5118647;28;20187;-41
2024/02/24 05:40:10;;;;;;;1.50;1.40;;;3.60;1.00;;;;;;5118305;28;20230;-41
2024/02/24 05:42:36;;;;;;;1.40;1.20;;;3.70;1.00;;;;;;5118476;28;20259;-41
2024/02/24 05:45:02;;;;;;;2.60;1.83;;;3.70;99.90;;;;;;5117739;28;20431;-40
2024/02/24 05:47:28;;;;;;;4.90;1.73;;;3.70;99.90;;;;;;5117993;28;20679;-40
2024/02/24 05:49:54;;;;;;;2.23;1.70;;;3.70;99.90;;;;;;5117830;28;20895;-42
2024/02/24 05:52:19;;;;;;;2.23;1.63;;;3.70;99.90;;;;;;5117300;28;20176;-39
2024/02/24 05:54:45;;;;;;;2.60;1.70;;;3.70;99.90;;;;;;5116790;28;20180;-40
2024/02/24 05:57:10;;;;;;;4.30;1.90;;;3.70;99.90;;;;;;5117499;28;20248;-39
2024/02/24 05:59:36;;;;;;;2.53;1.90;;;3.70;99.90;;;;;;5116996;28;20176;-43
2024/02/24 06:02:02;;;;;;;3.30;2.43;;;3.80;99.90;;;;;;5097983;28;20203;-40
2024/02/24 06:04:27;;;;;;;2.60;2.40;;;3.80;99.90;;;;;;5112599;28;20183;-40
2024/02/24 06:06:53;;;;;;;2.97;2.00;;;3.80;99.90;;;;;;5095120;28;20308;-42
2024/02/24 06:09:19;;;;;;;5.90;3.00;;;3.80;99.90;;;;;;5112386;28;20226;-39
2024/02/24 06:11:45;;;;;;;3.10;1.47;;;3.80;99.90;;;;;;5113107;28;20164;-39
2024/02/24 06:14:10;;;;;;;2.40;2.20;;;3.80;99.90;;;;;;5112794;28;20172;-39
2024/02/24 06:16:36;;;;;;;3.10;1.90;;;3.80;99.90;;;;;;5113222;28;20461;-39
2024/02/24 06:19:02;;;;;;;2.47;1.70;;;3.80;99.90;;;;;;5114806;28;20186;-40
2024/02/24 06:21:29;;;;;;;4.13;2.10;;;3.80;99.90;;;;;;5115659;28;20195;-40
2024/02/24 06:23:55;;;;;;;2.67;2.07;;;3.80;99.90;;;;;;5115384;28;20429;-47
2024/02/24 06:26:20;;;;;;;2.87;2.07;;;3.80;99.90;;;;;;5114483;28;20677;-41
2024/02/24 06:28:46;;;;;;;1.90;1.80;;;3.90;99.90;;;;;;5113485;28;20198;-40
2024/02/24 06:31:13;;;;;;;2.33;1.80;;;3.90;99.90;;;;;;5095420;28;20222;-39
2024/02/24 06:33:39;;;;;;;2.60;1.90;;;3.80;99.90;;;;;;5112610;28;20558;-40
2024/02/24 06:36:05;;;;;;;2.60;2.23;;;3.80;1.00;;;;;;5113722;28;20422;-40
2024/02/24 06:38:31;;;;;;;3.90;2.60;;;3.90;1.00;;;;;;5115650;28;20413;-39
2024/02/24 06:40:57;;;;;;;7.10;3.47;;;3.80;1.00;;;;;;5114781;28;20421;-39
2024/02/24 06:43:23;;;;;;;2.57;1.73;;;3.80;1.00;;;;;;5115179;28;20478;-39
2024/02/24 06:45:49;;;;;;;4.03;2.00;;;3.80;1.00;;;;;;5113544;28;20434;-40
2024/02/24 06:48:15;;;;;;;4.00;1.70;;;3.80;1.00;;;;;;5113860;28;20176;-39
2024/02/24 06:50:41;;;;;;;2.83;1.47;;;3.80;1.00;;;;;;5113692;28;20207;-39
2024/02/24 06:53:07;;;;;;;4.40;1.90;;;3.70;1.00;;;;;;5113757;28;20667;-41
2024/02/24 06:55:32;;;;;;;2.40;1.73;;;3.70;1.00;;;;;;5115529;28;20208;-40
2024/02/24 06:57:58;;;;;;;3.40;1.70;;;3.80;1.00;;;;;;5085429;28;20207;-40
2024/02/24 07:00:23;;;;;;;2.17;1.63;;;3.80;1.00;;;;;;5095163;28;20227;-41
2024/02/24 07:02:53;;;;;;;5.53;1.53;;;3.90;1.00;;;;;;5096367;28;20181;-40
2024/02/24 07:05:19;;;;;;;1.63;1.53;;;3.90;1.00;;;;;;5097100;28;20173;-44
2024/02/24 07:07:44;;;;;;;2.57;1.37;;;3.80;1.00;;;;;;5098266;28;20965;-41
2024/02/24 07:10:10;;;;;;;2.87;1.13;;;3.90;1.00;;;;;;5117915;28;20472;-43
2024/02/24 07:12:36;;;;;;;2.10;1.20;;;3.80;1.00;;;;;;5110625;28;20169;-42
2024/02/24 07:15:02;;;;;;;1.70;0.97;;;3.90;1.00;;;;;;5078103;28;20204;-39
2024/02/24 07:17:28;;;;;;;1.50;1.33;;;3.90;1.00;;;;;;5094536;28;20235;-39
2024/02/24 07:19:54;;;;;;;1.97;1.30;;;3.90;1.00;;;;;;5078352;28;20180;-40
2024/02/24 07:22:20;;;;;;;2.70;1.30;;;3.90;1.00;;;;;;5097385;28;20437;-41
2024/02/24 07:24:46;;;;;;;2.10;1.20;;;4.00;1.00;;;;;;5114961;28;20425;-40
2024/02/24 07:27:12;;;;;;;2.10;1.10;;;4.00;1.00;;;;;;5116334;28;20431;-41
2024/02/24 07:29:37;;;;;;;1.90;1.13;;;4.00;1.00;;;;;;5086732;28;20292;-41
2024/02/24 07:32:03;;;;;;;2.10;1.33;;;4.00;1.00;;;;;;5095565;28;20410;-38
2024/02/24 07:34:29;;;;;;;1.97;1.27;;;4.00;99.90;;;;;;5094747;28;20177;-39
2024/02/24 07:36:55;;;;;;;2.37;1.93;;;4.00;99.90;;;;;;5094688;28;20759;-38
2024/02/24 07:39:20;;;;;;;1.50;1.20;;;4.00;99.90;;;;;;5102692;28;20454;-39
2024/02/24 07:41:47;;;;;;;2.30;1.23;;;4.00;99.90;;;;;;5118929;28;20625;-40
2024/02/24 07:44:13;;;;;;;1.70;1.00;;;4.10;99.90;;;;;;5083762;28;20199;-39
2024/02/24 07:46:39;;;;;;;1.23;0.80;;;4.20;99.90;;;;;;5118532;28;20422;-40
2024/02/24 07:49:04;;;;;;;1.10;0.70;;;4.20;99.90;;;;;;5119971;28;20202;-41
2024/02/24 07:51:30;;;;;;;0.93;0.70;;;4.10;99.90;;;;;;5118650;28;20176;-39
2024/02/24 07:53:56;;;;;;;1.53;0.73;;;4.10;99.90;;;;;;5116204;28;20513;-42
2024/02/24 07:56:23;;;;;;;1.57;0.93;;;4.10;99.90;;;;;;5087368;28;20425;-39
2024/02/24 07:58:49;;;;;;;1.53;0.80;;;4.10;99.90;;;;;;5119199;28;20444;-40
2024/02/24 08:01:15;;;;;;;1.63;0.63;;;4.20;99.90;;;;;;5118432;28;20425;-42
2024/02/24 08:03:41;;;;;;;1.00;0.70;;;4.20;99.90;;;;;;5119927;28;20432;-39
2024/02/24 08:06:07;;;;;;;1.17;0.67;;;4.10;99.90;;;;;;5120139;28;20671;-38
2024/02/24 08:08:36;;;;;;;1.40;0.90;;;4.10;99.90;;;;;;5119308;28;20179;-40
2024/02/24 08:11:02;;;;;;;2.07;0.70;;;4.10;99.90;;;;;;5120381;28;20191;-39
2024/02/24 08:13:28;;;;;;;0.80;0.57;;;4.20;99.90;;;;;;5120821;28;20418;-39
2024/02/24 08:15:54;;;;;;;2.57;1.20;;;4.40;99.90;;;;;;5119121;28;20472;-45
2024/02/24 08:18:19;;;;;;;2.87;0.87;;;4.90;99.90;;;;;;5119311;28;20611;-47
2024/02/24 08:20:45;;;;;;;1.93;1.03;;;5.30;1.00;;;;;;5119097;28;20716;-44
2024/02/24 08:23:11;;;;;;;1.50;1.07;;;5.80;1.00;;;;;;5119346;28;20179;-49
2024/02/24 08:25:36;;;;;;;2.97;1.10;;;6.40;1.00;;;;;;5099063;28;20176;-47
2024/02/24 08:28:02;;;;;;;1.13;1.03;;;7.00;99.90;;;;;;5119111;28;20179;-44
2024/02/24 08:30:28;;;;;;;1.80;0.80;;;8.20;99.90;;;;;;5118191;28;20517;-44
2024/02/24 08:32:53;;;;;;;1.10;0.90;;;8.80;99.90;;;;;;5117068;28;20237;-44
2024/02/24 08:35:19;;;;;;;1.20;0.90;;;9.10;1.00;;;;;;5119060;28;20172;-46
2024/02/24 08:37:45;;;;;;;1.60;1.30;;;9.60;99.90;;;;;;5098757;28;20646;-43
2024/02/24 08:40:12;;;;;;;1.63;0.60;;;10.60;99.90;;;;;;5117320;28;20180;-44
2024/02/24 08:42:38;;;;;;;1.23;0.73;;;11.30;1.00;;;;;;5115952;28;20233;-44
2024/02/24 08:45:04;;;;;;;1.37;0.90;;;12.20;1.00;;;;;;5117251;28;20475;-47
2024/02/24 08:47:29;;;;;;;1.37;0.80;;;12.90;1.00;;;;;;5096941;28;20831;-45
2024/02/24 08:49:55;;;;;;;1.40;0.80;;;13.50;1.00;;;;;;5113656;28;20461;-46
2024/02/24 08:52:20;;;;;;;1.80;0.77;;;13.70;1.00;;;;;;5114601;28;20207;-44
2024/02/24 08:54:46;;;;;;;1.10;0.67;;;13.30;1.00;;;;;;5114339;28;20244;-47
2024/02/24 08:57:13;;;;;;;1.07;0.50;;;12.90;1.00;;;;;;5113752;28;20187;-46
2024/02/24 08:59:39;;;;;;;1.30;0.80;;;13.30;1.00;;;;;;5115919;28;20171;-48
2024/02/24 09:02:05;;;;;;;1.33;0.70;;;13.50;1.00;;;;;;5115642;28;20622;-44
2024/02/24 09:04:30;;;;;;;1.17;0.50;;;13.90;1.00;;;;;;5115944;28;20429;-45
2024/02/24 09:06:56;;;;;;;1.50;0.80;;;14.80;1.00;;;;;;5113511;28;20191;-54
2024/02/24 09:09:21;;;;;;;6.47;0.90;;;15.00;1.00;;;;;;5114943;28;20581;-52
2024/02/24 09:11:48;;;;;;;1.00;0.60;;;15.10;1.00;;;;;;5116251;28;20197;-44
2024/02/24 09:14:15;;;;;;;1.30;0.83;;;15.60;99.90;;;;;;5099720;28;20216;-45
2024/02/24 09:16:41;;;;;;;1.87;0.80;;;16.20;99.90;;;;;;5117479;28;20465;-46
2024/02/24 09:19:06;;;;;;;0.90;0.50;;;16.50;99.90;;;;;;5098021;28;20199;-46
2024/02/24 09:21:32;;;;;;;1.77;0.80;;;15.80;99.90;;;;;;5096298;28;20229;-46
2024/02/24 09:23:58;;;;;;;1.27;0.60;;;15.20;99.90;;;;;;5116284;28;20171;-44
2024/02/24 09:26:24;;;;;;;1.00;0.50;;;14.40;99.90;;;;;;5116992;28;20630;-47
2024/02/24 09:28:49;;;;;;;3.83;0.80;;;14.30;99.90;;;;;;5114545;28;20175;-46
2024/02/24 09:31:15;;;;;;;0.97;0.57;;;13.70;99.90;;;;;;5115583;28;20898;-46
2024/02/24 09:33:41;;;;;;;1.20;0.57;;;13.50;99.90;;;;;;5116885;28;20251;-43
2024/02/24 09:36:07;;;;;;;1.40;0.90;;;13.80;99.90;;;;;;5098199;28;20559;-48
2024/02/24 09:38:32;;;;;;;1.13;0.47;;;13.80;99.90;;;;;;5116857;28;20472;-44
2024/02/24 09:40:58;;;;;;;0.80;0.50;;;14.30;99.90;;;;;;5097565;28;20206;-45
2024/02/24 09:43:24;;;;;;;1.07;0.47;;;15.20;99.90;;;;;;5115003;28;20181;-43
2024/02/24 09:45:50;;;;;;;0.90;0.40;;;15.10;99.90;;;;;;5114321;28;20176;-48
2024/02/24 09:48:15;;;;;;;0.90;0.60;;;15.00;99.90;;;;;;5096789;28;20179;-46
2024/02/24 09:50:41;;;;;;;2.83;0.40;;;14.60;99.90;;;;;;5114345;28;20514;-46
2024/02/24 09:53:07;;;;;;;1.57;0.60;;;15.10;99.90;;;;;;5096681;28;20183;-47
2024/02/24 09:55:34;;;;;;;1.10;0.50;;;15.80;99.90;;;;;;5115614;28;20708;-45
2024/02/24 09:58:01;;;;;;;1.10;0.47;;;15.80;99.90;;;;;;5095848;28;20421;-47
2024/02/24 10:00:27;;;;;;;1.03;0.40;;;16.00;99.90;;;;;;5114905;28;20421;-46
2024/02/24 10:02:53;;;;;;;0.90;0.40;;;15.80;99.90;;;;;;5098073;28;20489;-47
2024/02/24 10:05:18;;;;;;;0.90;0.47;;;16.30;99.90;;;;;;5098511;28;20477;-45
2024/02/24 10:07:47;;;;;;;1.17;0.40;;;17.30;99.90;;;;;;5114128;28;20171;-48
2024/02/24 10:10:16;;;;;;;1.33;0.73;;;17.60;99.90;;;;;;5113101;28;20208;-48
2024/02/24 10:12:57;;;;;;;1.07;0.43;;;17.90;99.90;;;;;;5114895;28;20704;-46
2024/02/24 10:15:23;;;;;;;1.70;0.80;;;18.20;99.90;;;;;;5115446;28;20897;-48
2024/02/24 10:17:49;;;;;;;1.00;0.55;;;17.00;99.90;;;;;;5058218;28;1135721;-45
2024/02/24 10:20:15;;;;;;;1.40;1.00;;;16.90;99.90;;;;;;5115182;28;20419;-47
2024/02/24 10:22:41;;;;;;;1.00;0.50;;;16.30;99.90;;;;;;5115449;28;20900;-48
2024/02/24 10:25:07;;;;;;;1.00;0.60;;;15.10;99.90;;;;;;5115134;28;20175;-48
2024/02/24 10:27:33;;;;;;;1.10;0.40;;;14.50;99.90;;;;;;5114414;28;20460;-48
2024/02/24 10:30:02;;;;;;;1.03;0.50;;;14.30;99.90;;;;;;5114688;28;20901;-47
2024/02/24 10:32:28;;;;;;;1.00;0.40;;;14.50;99.90;;;;;;5095287;28;20191;-45
2024/02/24 10:34:54;;;;;;;0.80;0.40;;;14.50;99.90;;;;;;5097343;28;20429;-48
2024/02/24 10:37:20;;;;;;;0.90;0.30;;;14.40;99.90;;;;;;5097450;28;20393;-46
2024/02/24 10:39:46;;;;;;;2.20;0.53;;;14.00;99.90;;;;;;5098938;28;20574;-46
2024/02/24 10:42:12;;;;;;;2.63;0.70;;;13.50;99.90;;;;;;5098438;28;20441;-48
2024/02/24 10:44:38;;;;;;;1.23;0.60;;;13.60;99.90;;;;;;5096790;28;20417;-44
2024/02/24 10:47:03;;;;;;;1.40;0.40;;;13.00;99.90;;;;;;5114026;28;20180;-48
2024/02/24 10:49:29;;;;;;;1.10;0.50;;;12.30;99.90;;;;;;5115983;28;20888;-45
2024/02/24 10:51:55;;;;;;;1.07;0.40;;;11.30;99.90;;;;;;5113490;28;20307;-50
2024/02/24 10:54:30;;;;;;;1.10;0.50;;;11.10;99.90;;;;;;5096103;28;20180;-45
2024/02/24 10:57:01;;;;;;;2.67;0.70;;;11.00;99.90;;;;;;5095049;28;20424;-45
2024/02/24 10:59:31;;;;;;;1.20;0.60;;;10.70;99.90;;;;;;5114031;28;20523;-46
2024/02/24 11:02:01;;;;;;;1.83;1.20;;;10.20;99.90;;;;;;5113867;28;20425;-46
2024/02/24 11:04:27;;;;;;;1.27;0.30;;;9.90;99.90;;;;;;5113839;28;20437;-46
2024/02/24 11:06:55;;;;;;;1.13;0.40;;;9.60;99.90;;;;;;5113743;28;20437;-45
2024/02/24 11:09:30;;;;;;;2.17;1.33;;;9.60;99.90;;;;;;5112684;28;20422;-46
2024/02/24 11:12:08;;;;;;;1.20;0.50;;;9.80;99.90;;;;;;5094073;28;20680;-45
2024/02/24 11:14:37;;;;;;;2.03;0.70;;;10.10;99.90;;;;;;5117821;28;20461;-46
2024/02/24 11:17:03;;;;;;;1.43;0.47;;;11.00;99.90;;;;;;5117746;28;20479;-44
2024/02/24 11:19:44;;;;;;;2.20;0.70;;;12.10;99.90;;;;;;5117880;28;20446;-45
2024/02/24 11:22:30;;;;;;;1.20;0.53;;;13.30;99.90;;;;;;5116704;28;20425;-45
2024/02/24 11:25:06;;;;;;;1.70;0.50;;;13.80;99.90;;;;;;5117058;28;20433;-45
2024/02/24 11:27:36;;;;;;;1.10;0.50;;;12.90;99.90;;;;;;5116526;28;20424;-45
2024/02/24 11:30:36;;;;;;;1.43;0.50;;;12.50;99.90;;;;;;5117701;28;20507;-48
2024/02/24 11:33:27;;;;;;;1.40;0.40;;;11.00;99.90;;;;;;5118435;28;20406;-44
2024/02/24 11:35:55;;;;;;;1.53;0.40;;;10.70;99.90;;;;;;5081356;28;20873;-46
2024/02/24 11:38:24;;;;;;;0.93;0.40;;;10.50;99.90;;;;;;5117074;28;20413;-44
2024/02/24 11:40:50;;;;;;;0.77;0.37;;;10.60;99.90;;;;;;5095381;28;20518;-44
2024/02/24 11:43:17;;;;;;;1.33;0.50;;;11.00;99.90;;;;;;5098755;28;20426;-45
2024/02/24 11:45:46;;;;;;;1.33;0.50;;;11.80;99.90;;;;;;5099163;28;20827;-45
2024/02/24 11:48:13;;;;;;;1.47;0.67;;;13.00;99.90;;;;;;5097154;28;20442;-47
2024/02/24 11:50:38;;;;;;;1.43;0.53;;;14.10;99.90;;;;;;5097264;28;20460;-47
2024/02/24 11:53:04;;;;;;;1.07;0.60;;;14.40;99.90;;;;;;5097293;28;20426;-45
2024/02/24 11:55:30;;;;;;;1.00;0.60;;;14.60;99.90;;;;;;5109782;28;20701;-47
2024/02/24 11:57:55;;;;;;;1.83;0.93;;;14.30;99.90;;;;;;5113900;28;20443;-45
2024/02/24 12:00:21;;;;;;;1.77;0.80;;;15.40;99.90;;;;;;5095350;28;20585;-48
2024/02/24 12:02:47;;;;;;;1.07;0.60;;;16.80;99.90;;;;;;5114465;28;20180;-44
2024/02/24 12:05:17;;;;;;;1.10;0.53;;;16.80;99.90;;;;;;5112807;28;20179;-48
2024/02/24 12:07:43;;;;;;;1.00;0.50;;;16.60;99.90;;;;;;5113249;28;20441;-49
2024/02/24 12:10:09;;;;;;;1.47;0.60;;;16.30;99.90;;;;;;5096280;28;20534;-44
2024/02/24 12:12:35;;;;;;;1.03;0.60;;;14.70;99.90;;;;;;5113374;28;20421;-47
2024/02/24 12:15:01;;;;;;;0.93;0.57;;;13.70;99.90;;;;;;5100029;28;20425;-48
2024/02/24 12:17:27;;;;;;;1.87;0.60;;;14.30;99.90;;;;;;5116609;28;20468;-48
2024/02/24 12:19:54;;;;;;;2.40;0.50;;;15.30;99.90;;;;;;5118331;28;20175;-44
2024/02/24 12:22:22;;;;;;;0.93;0.47;;;15.30;99.90;;;;;;5100121;28;20187;-46
2024/02/24 12:24:48;;;;;;;0.73;0.40;;;14.90;99.90;;;;;;5117860;28;20422;-44
2024/02/24 12:27:14;;;;;;;0.83;0.40;;;14.80;99.90;;;;;;5118544;28;20417;-45
2024/02/24 12:29:39;;;;;;;1.07;0.47;;;14.60;99.90;;;;;;5118128;28;20207;-47
2024/02/24 12:32:06;;;;;;;1.37;0.50;;;13.80;99.90;;;;;;5115763;28;20186;-45
2024/02/24 12:34:32;;;;;;;1.13;0.30;;;13.40;99.90;;;;;;5116737;28;20175;-44
2024/02/24 12:36:58;;;;;;;1.47;0.57;;;13.10;99.90;;;;;;5100340;28;20422;-49
2024/02/24 12:39:24;;;;;;;0.90;0.40;;;12.50;99.90;;;;;;5116395;28;20737;-45
2024/02/24 12:41:52;;;;;;;1.10;0.60;;;12.60;99.90;;;;;;5099690;28;20168;-46
2024/02/24 12:44:17;;;;;;;0.90;0.40;;;12.40;99.90;;;;;;5118132;28;20713;-47
2024/02/24 12:46:44;;;;;;;1.53;0.50;;;12.80;99.90;;;;;;5096819;28;20529;-46
2024/02/24 12:49:09;;;;;;;1.00;0.50;;;12.60;99.90;;;;;;5094783;28;20190;-44
2024/02/24 12:51:35;;;;;;;2.60;0.60;;;12.40;99.90;;;;;;5094539;28;20716;-46
2024/02/24 12:54:01;;;;;;;0.93;0.40;;;12.40;99.90;;;;;;5094234;28;20176;-44